Time;durP1;ratioP1;P1;durP2;ratioP2;P2;SDS_P1;SDS_P2;PMS_P1;PMS_P2;Temp;Humidity;BMP_temperature;BMP_pressure;BME280_temperature;BME280_humidity;BME280_pressure;Samples;Min_cycle;Max_cycle;Signal;HPM_P1;HPM_P2
2024/01/10 00:01:35;;;;;;;20.35;18.00;;;-4.40;99.90;;;;;;5046958;28;20416;-63
2024/01/10 00:04:01;;;;;;;20.10;16.90;;;-4.40;99.90;;;;;;5064542;28;20769;-63
2024/01/10 00:06:27;;;;;;;19.63;17.50;;;-4.40;99.90;;;;;;5068240;28;20406;-63
2024/01/10 00:08:52;;;;;;;19.92;17.83;;;-4.40;99.90;;;;;;5066503;28;20496;-63
2024/01/10 00:11:18;;;;;;;19.33;17.13;;;-4.40;99.90;;;;;;5048669;28;20438;-63
2024/01/10 00:13:44;;;;;;;20.35;17.42;;;-4.50;99.90;;;;;;5090811;28;20959;-63
2024/01/10 00:16:13;;;;;;;20.88;18.15;;;-4.40;99.90;;;;;;5067573;28;20557;-63
2024/01/10 00:18:42;;;;;;;20.77;17.58;;;-4.50;99.90;;;;;;5066977;28;20486;-63
2024/01/10 00:21:08;;;;;;;19.13;17.13;;;-4.50;99.90;;;;;;5068954;28;20506;-63
2024/01/10 00:23:34;;;;;;;20.55;18.35;;;-4.50;99.90;;;;;;5067025;28;20509;-62
2024/01/10 00:26:00;;;;;;;20.00;17.70;;;-4.50;99.90;;;;;;5065612;28;20506;-63
2024/01/10 00:28:26;;;;;;;21.48;18.10;;;-4.50;99.90;;;;;;5067309;28;20408;-63
2024/01/10 00:30:52;;;;;;;21.05;18.15;;;-4.50;99.90;;;;;;5065233;28;20422;-63
2024/01/10 00:33:18;;;;;;;19.80;17.55;;;-4.50;99.90;;;;;;5067672;28;20408;-63
2024/01/10 00:35:44;;;;;;;22.23;18.58;;;-4.50;99.90;;;;;;5064238;28;20507;-63
2024/01/10 00:38:10;;;;;;;20.85;17.77;;;-4.50;99.90;;;;;;5066676;28;20399;-62
2024/01/10 00:40:36;;;;;;;21.73;18.15;;;-4.50;99.90;;;;;;5066161;28;20399;-63
2024/01/10 00:43:02;;;;;;;20.48;17.30;;;-4.60;99.90;;;;;;5067391;28;20392;-62
2024/01/10 00:45:28;;;;;;;18.90;16.85;;;-4.60;99.90;;;;;;5069206;28;20396;-63
2024/01/10 00:47:54;;;;;;;19.35;17.17;;;-4.60;99.90;;;;;;5066758;28;20900;-63
2024/01/10 00:50:19;;;;;;;20.10;17.67;;;-4.60;99.90;;;;;;5048496;28;20780;-63
2024/01/10 00:52:45;;;;;;;19.20;16.90;;;-4.50;99.90;;;;;;5063728;28;20427;-63
2024/01/10 00:55:12;;;;;;;18.95;16.45;;;-4.50;99.90;;;;;;5059040;28;20575;-63
2024/01/10 00:57:38;;;;;;;19.15;16.70;;;-4.50;99.90;;;;;;5064947;28;20404;-62
2024/01/10 01:00:09;;;;;;;19.55;16.85;;;-4.50;99.90;;;;;;5049736;28;20404;-62
2024/01/10 01:02:35;;;;;;;19.43;17.33;;;-4.50;99.90;;;;;;5043120;28;20448;-62
2024/01/10 01:05:01;;;;;;;18.92;16.67;;;-4.50;99.90;;;;;;5067050;28;21427;-63
2024/01/10 01:07:27;;;;;;;18.92;16.70;;;-4.50;99.90;;;;;;5092187;28;20500;-63
2024/01/10 01:09:53;;;;;;;19.73;17.33;;;-4.60;99.90;;;;;;5066436;28;20503;-64
2024/01/10 01:12:19;;;;;;;20.70;18.03;;;-4.60;99.90;;;;;;5067238;28;20388;-63
2024/01/10 01:14:44;;;;;;;19.80;17.70;;;-4.60;99.90;;;;;;5067843;28;20435;-63
2024/01/10 01:17:10;;;;;;;20.80;18.10;;;-4.60;99.90;;;;;;5067813;28;20426;-63
2024/01/10 01:19:36;;;;;;;20.27;18.07;;;-4.60;99.90;;;;;;5066610;28;20440;-64
2024/01/10 01:22:02;;;;;;;19.57;17.47;;;-4.60;99.90;;;;;;5068141;28;20473;-64
2024/01/10 01:24:28;;;;;;;22.20;18.35;;;-4.60;99.90;;;;;;5068516;28;20427;-63
2024/01/10 01:26:53;;;;;;;21.17;18.87;;;-4.70;99.90;;;;;;5069448;28;20489;-63
2024/01/10 01:29:20;;;;;;;20.13;17.73;;;-4.70;99.90;;;;;;5071906;28;20399;-63
2024/01/10 01:31:46;;;;;;;21.60;17.65;;;-4.70;99.90;;;;;;5069108;28;20412;-63
2024/01/10 01:34:12;;;;;;;21.23;17.50;;;-4.70;99.90;;;;;;5069717;28;20414;-64
2024/01/10 01:36:37;;;;;;;20.70;17.92;;;-4.70;99.90;;;;;;5069123;28;20457;-63
2024/01/10 01:39:03;;;;;;;21.25;17.73;;;-4.70;99.90;;;;;;5069097;28;20407;-63
2024/01/10 01:41:29;;;;;;;19.98;17.88;;;-4.70;99.90;;;;;;5052379;28;20403;-63
2024/01/10 01:43:55;;;;;;;20.08;17.67;;;-4.70;99.90;;;;;;5070539;28;20396;-63
2024/01/10 01:46:21;;;;;;;21.05;17.58;;;-4.70;99.90;;;;;;5052185;28;20451;-63
2024/01/10 01:48:47;;;;;;;20.77;18.58;;;-4.80;99.90;;;;;;5072431;28;20905;-63
2024/01/10 01:51:15;;;;;;;19.48;17.38;;;-4.80;99.90;;;;;;5068991;28;20468;-63
2024/01/10 01:53:44;;;;;;;20.20;18.00;;;-4.80;99.90;;;;;;5071219;28;20399;-64
2024/01/10 01:56:10;;;;;;;21.00;18.17;;;-4.80;99.90;;;;;;5069918;28;20426;-64
2024/01/10 01:58:37;;;;;;;20.85;18.05;;;-4.80;99.90;;;;;;5072910;28;20417;-64
2024/01/10 02:01:04;;;;;;;21.65;18.90;;;-4.80;99.90;;;;;;5066456;28;20431;-63
2024/01/10 02:03:34;;;;;;;22.00;19.52;;;-4.80;99.90;;;;;;5065414;28;20457;-64
2024/01/10 02:06:03;;;;;;;21.83;19.25;;;-4.80;99.90;;;;;;5066822;28;20506;-63
2024/01/10 02:08:33;;;;;;;21.53;19.23;;;-4.80;99.90;;;;;;5068590;28;20412;-63
2024/01/10 02:11:00;;;;;;;21.73;19.07;;;-4.80;99.90;;;;;;5069065;28;20440;-63
2024/01/10 02:13:26;;;;;;;22.00;19.55;;;-4.80;99.90;;;;;;5070506;28;20392;-62
2024/01/10 02:15:52;;;;;;;21.88;18.67;;;-4.80;99.90;;;;;;5068271;28;20420;-63
2024/01/10 02:18:18;;;;;;;20.83;18.42;;;-4.80;99.90;;;;;;5068937;28;20411;-63
2024/01/10 02:20:44;;;;;;;21.33;18.23;;;-4.80;99.90;;;;;;5069378;28;20415;-63
2024/01/10 02:23:11;;;;;;;20.92;18.63;;;-4.80;99.90;;;;;;5068015;28;20581;-64
2024/01/10 02:25:37;;;;;;;21.10;18.17;;;-4.80;99.90;;;;;;5069848;28;20400;-64
2024/01/10 02:28:03;;;;;;;20.75;18.42;;;-4.80;99.90;;;;;;5068840;28;20469;-63
2024/01/10 02:30:29;;;;;;;20.58;18.27;;;-4.80;99.90;;;;;;5068098;28;20419;-64
2024/01/10 02:32:55;;;;;;;24.60;18.37;;;-4.90;99.90;;;;;;5066742;28;20426;-64
2024/01/10 02:35:20;;;;;;;21.53;18.30;;;-4.90;99.90;;;;;;5067106;28;20442;-63
2024/01/10 02:37:46;;;;;;;20.67;18.17;;;-4.90;99.90;;;;;;5068782;28;20414;-63
2024/01/10 02:40:12;;;;;;;19.02;17.02;;;-4.90;99.90;;;;;;5067281;28;20415;-63
2024/01/10 02:42:38;;;;;;;20.20;18.05;;;-4.90;99.90;;;;;;5067863;28;20419;-64
2024/01/10 02:45:05;;;;;;;20.23;18.00;;;-4.90;99.90;;;;;;5070102;28;20392;-64
2024/01/10 02:47:30;;;;;;;19.75;17.27;;;-4.90;99.90;;;;;;5069417;28;20430;-63
2024/01/10 02:49:56;;;;;;;19.40;17.17;;;-4.90;99.90;;;;;;5067198;28;21095;-63
2024/01/10 02:52:22;;;;;;;19.77;17.63;;;-5.00;99.90;;;;;;5064500;28;20439;-63
2024/01/10 02:54:47;;;;;;;20.27;17.35;;;-5.00;99.90;;;;;;5048310;28;20428;-63
2024/01/10 02:57:13;;;;;;;20.63;18.42;;;-5.00;99.90;;;;;;5066594;28;20430;-63
2024/01/10 02:59:39;;;;;;;19.20;17.10;;;-5.00;99.90;;;;;;5068483;28;20502;-64
2024/01/10 03:02:05;;;;;;;19.60;16.88;;;-5.00;99.90;;;;;;5067283;28;20400;-64
2024/01/10 03:04:30;;;;;;;19.77;17.47;;;-4.90;99.90;;;;;;5069325;28;20483;-64
2024/01/10 03:06:56;;;;;;;20.50;17.50;;;-5.00;99.90;;;;;;5068127;28;20461;-64
2024/01/10 03:09:23;;;;;;;21.90;17.87;;;-5.00;99.90;;;;;;5067648;28;20430;-63
2024/01/10 03:11:48;;;;;;;20.20;16.83;;;-5.00;99.90;;;;;;5069074;28;20415;-63
2024/01/10 03:14:14;;;;;;;20.45;17.20;;;-5.00;99.90;;;;;;5068661;28;20896;-64
2024/01/10 03:16:40;;;;;;;18.98;16.98;;;-5.10;99.90;;;;;;5068939;28;20446;-63
2024/01/10 03:19:06;;;;;;;19.27;16.98;;;-5.10;99.90;;;;;;5068026;28;20403;-63
2024/01/10 03:21:32;;;;;;;19.73;17.17;;;-5.10;99.90;;;;;;5066772;28;20407;-64
2024/01/10 03:24:00;;;;;;;21.00;18.00;;;-5.10;99.90;;;;;;5068367;28;20400;-64
2024/01/10 03:26:27;;;;;;;18.80;16.80;;;-5.10;99.90;;;;;;5067354;28;20419;-64
2024/01/10 03:28:53;;;;;;;20.48;16.83;;;-5.20;99.90;;;;;;5089587;27;20417;-64
2024/01/10 03:31:19;;;;;;;21.25;17.65;;;-5.20;99.90;;;;;;5067042;28;20412;-63
2024/01/10 03:33:45;;;;;;;20.88;17.13;;;-5.20;99.90;;;;;;5068329;28;20422;-64
2024/01/10 03:36:16;;;;;;;19.70;17.45;;;-5.20;99.90;;;;;;5050344;28;20960;-63
2024/01/10 03:38:43;;;;;;;20.20;17.23;;;-5.20;99.90;;;;;;5066879;28;20407;-64
2024/01/10 03:41:13;;;;;;;19.42;17.33;;;-5.20;99.90;;;;;;5068927;28;20740;-64
2024/01/10 03:43:39;;;;;;;21.48;17.48;;;-5.20;99.90;;;;;;5066319;28;20400;-64
2024/01/10 03:46:05;;;;;;;21.17;17.77;;;-5.20;99.90;;;;;;5066204;28;20465;-63
2024/01/10 03:48:31;;;;;;;20.27;18.10;;;-5.20;99.90;;;;;;5068158;28;20396;-63
2024/01/10 03:50:57;;;;;;;19.80;17.27;;;-5.20;99.90;;;;;;5068562;28;20791;-64
2024/01/10 03:53:22;;;;;;;20.63;17.40;;;-5.30;99.90;;;;;;5068803;28;20468;-64
2024/01/10 03:55:48;;;;;;;18.43;16.40;;;-5.20;99.90;;;;;;5068446;28;20973;-63
2024/01/10 03:58:14;;;;;;;19.20;17.10;;;-5.20;99.90;;;;;;5050405;28;20404;-63
2024/01/10 04:00:39;;;;;;;19.27;17.20;;;-5.20;99.90;;;;;;5065876;28;20488;-63
2024/01/10 04:03:05;;;;;;;20.08;17.67;;;-5.20;99.90;;;;;;5050881;28;20406;-63
2024/01/10 04:05:31;;;;;;;20.48;17.65;;;-5.20;99.90;;;;;;5068428;28;20444;-63
2024/01/10 04:07:56;;;;;;;20.23;16.97;;;-5.10;99.90;;;;;;5049386;28;20916;-62
2024/01/10 04:10:23;;;;;;;20.17;18.07;;;-5.20;99.90;;;;;;5068205;28;20402;-63
2024/01/10 04:12:49;;;;;;;19.02;17.00;;;-5.20;99.90;;;;;;5066413;28;20396;-63
2024/01/10 04:15:15;;;;;;;19.77;17.67;;;-5.20;99.90;;;;;;5068313;28;20908;-63
2024/01/10 04:17:41;;;;;;;21.30;18.58;;;-5.20;99.90;;;;;;5068328;28;20391;-63
2024/01/10 04:20:07;;;;;;;22.93;19.87;;;-5.20;99.90;;;;;;5067235;28;20941;-63
2024/01/10 04:22:33;;;;;;;22.92;19.55;;;-5.20;99.90;;;;;;5064096;28;20482;-63
2024/01/10 04:25:00;;;;;;;24.83;21.65;;;-5.20;99.90;;;;;;5066803;28;20391;-63
2024/01/10 04:27:27;;;;;;;25.20;22.00;;;-5.20;99.90;;;;;;5066828;28;20490;-63
2024/01/10 04:29:53;;;;;;;27.55;23.10;;;-5.30;99.90;;;;;;5066770;28;20904;-63
2024/01/10 04:32:19;;;;;;;26.93;23.07;;;-5.30;99.90;;;;;;5068619;28;20484;-62
2024/01/10 04:34:45;;;;;;;26.85;23.95;;;-5.30;99.90;;;;;;5072920;28;20843;-63
2024/01/10 04:37:10;;;;;;;27.47;23.60;;;-5.30;99.90;;;;;;5068399;28;20420;-63
2024/01/10 04:39:37;;;;;;;28.87;23.67;;;-5.30;99.90;;;;;;5067504;28;20422;-63
2024/01/10 04:42:05;;;;;;;26.33;22.63;;;-5.30;99.90;;;;;;5067702;28;20478;-63
2024/01/10 04:44:30;;;;;;;27.10;22.92;;;-5.30;99.90;;;;;;5067734;28;20396;-62
2024/01/10 04:46:56;;;;;;;26.52;23.45;;;-5.30;99.90;;;;;;5047590;28;20421;-63
2024/01/10 04:49:22;;;;;;;26.73;23.63;;;-5.30;99.90;;;;;;5066855;28;20415;-63
2024/01/10 04:51:48;;;;;;;28.10;24.00;;;-5.30;99.90;;;;;;5069067;28;20990;-63
2024/01/10 04:54:14;;;;;;;27.87;23.40;;;-5.30;99.90;;;;;;5067344;28;20391;-63
2024/01/10 04:56:39;;;;;;;26.27;23.10;;;-5.30;99.90;;;;;;5068692;28;20415;-63
2024/01/10 04:59:06;;;;;;;28.02;23.90;;;-5.30;99.90;;;;;;5068494;28;20890;-63
2024/01/10 05:01:32;;;;;;;28.85;25.05;;;-5.30;99.90;;;;;;5072841;28;20399;-63
2024/01/10 05:03:58;;;;;;;27.50;24.45;;;-5.30;99.90;;;;;;5068437;28;20506;-63
2024/01/10 05:06:24;;;;;;;28.50;25.17;;;-5.30;99.90;;;;;;5069194;28;20940;-63
2024/01/10 05:08:50;;;;;;;30.25;25.25;;;-5.40;99.90;;;;;;5069866;28;20774;-63
2024/01/10 05:11:16;;;;;;;28.67;24.80;;;-5.40;99.90;;;;;;5072389;28;20401;-63
2024/01/10 05:13:43;;;;;;;29.90;25.90;;;-5.40;99.90;;;;;;5073194;28;20410;-63
2024/01/10 05:16:08;;;;;;;29.13;25.42;;;-5.40;99.90;;;;;;5072179;28;20420;-63
2024/01/10 05:18:34;;;;;;;31.00;26.30;;;-5.40;99.90;;;;;;5069952;28;20461;-63
2024/01/10 05:21:01;;;;;;;29.77;26.38;;;-5.40;99.90;;;;;;5071838;28;20931;-63
2024/01/10 05:23:27;;;;;;;29.48;24.65;;;-5.40;99.90;;;;;;5071162;28;20889;-63
2024/01/10 05:25:53;;;;;;;31.23;26.95;;;-5.40;99.90;;;;;;5069576;28;20414;-63
2024/01/10 05:28:19;;;;;;;34.47;28.20;;;-5.50;99.90;;;;;;5071898;28;20447;-62
2024/01/10 05:30:45;;;;;;;33.50;29.47;;;-5.50;99.90;;;;;;5068493;28;20415;-63
2024/01/10 05:33:11;;;;;;;34.07;28.70;;;-5.50;99.90;;;;;;5071428;28;20557;-64
2024/01/10 05:35:38;;;;;;;32.07;28.43;;;-5.50;99.90;;;;;;5092783;27;20434;-64
2024/01/10 05:38:04;;;;;;;33.75;28.58;;;-5.50;99.90;;;;;;5073443;28;20396;-64
2024/01/10 05:40:30;;;;;;;33.10;28.00;;;-5.50;99.90;;;;;;5072719;28;20392;-63
2024/01/10 05:42:56;;;;;;;34.08;28.67;;;-5.50;99.90;;;;;;5071156;28;20396;-64
2024/01/10 05:45:22;;;;;;;31.42;27.17;;;-5.50;99.90;;;;;;5071102;28;20390;-64
2024/01/10 05:47:48;;;;;;;34.22;28.55;;;-5.50;99.90;;;;;;5051147;28;20491;-63
2024/01/10 05:50:14;;;;;;;34.80;28.98;;;-5.60;99.90;;;;;;5069811;28;20415;-63
2024/01/10 05:52:40;;;;;;;37.28;29.80;;;-5.60;99.90;;;;;;5066902;28;20421;-64
2024/01/10 05:55:08;;;;;;;34.20;29.70;;;-5.60;99.90;;;;;;5071183;28;20386;-64
2024/01/10 05:57:35;;;;;;;35.60;30.65;;;-5.60;99.90;;;;;;5070512;28;20424;-64
2024/01/10 06:00:00;;;;;;;37.15;31.05;;;-5.60;99.90;;;;;;5073611;28;20411;-63
2024/01/10 06:02:27;;;;;;;37.73;31.87;;;-5.60;99.90;;;;;;5070021;28;20919;-64
2024/01/10 06:04:53;;;;;;;39.05;32.33;;;-5.60;99.90;;;;;;5071769;28;20404;-63
2024/01/10 06:07:20;;;;;;;39.78;32.45;;;-5.60;99.90;;;;;;5070237;28;20406;-64
2024/01/10 06:09:47;;;;;;;41.95;34.60;;;-5.60;99.90;;;;;;5067905;28;20415;-64
2024/01/10 06:12:13;;;;;;;38.72;32.25;;;-5.60;99.90;;;;;;5070835;28;20407;-63
2024/01/10 06:14:39;;;;;;;40.42;34.00;;;-5.60;99.90;;;;;;5070891;28;20833;-64
2024/01/10 06:17:06;;;;;;;40.60;34.20;;;-5.60;99.90;;;;;;5069236;28;20881;-65
2024/01/10 06:19:31;;;;;;;39.60;34.22;;;-5.60;99.90;;;;;;5069605;28;20411;-64
2024/01/10 06:22:00;;;;;;;40.95;33.78;;;-5.60;99.90;;;;;;5069554;28;20553;-64
2024/01/10 06:24:26;;;;;;;38.72;33.42;;;-5.60;99.90;;;;;;5099629;27;20692;-64
2024/01/10 06:26:52;;;;;;;40.03;33.42;;;-5.60;99.90;;;;;;5066552;28;20419;-62
2024/01/10 06:29:18;;;;;;;40.67;33.90;;;-5.60;99.90;;;;;;5068344;28;20480;-65
2024/01/10 06:31:44;;;;;;;39.63;33.10;;;-5.60;99.90;;;;;;5067988;28;20779;-64
2024/01/10 06:34:10;;;;;;;38.90;33.33;;;-5.60;99.90;;;;;;5071282;28;20403;-65
2024/01/10 06:36:36;;;;;;;40.45;33.53;;;-5.60;99.90;;;;;;5069888;28;20510;-64
2024/01/10 06:39:02;;;;;;;38.85;33.55;;;-5.60;99.90;;;;;;5068856;28;20900;-64
2024/01/10 06:41:28;;;;;;;38.30;33.67;;;-5.60;99.90;;;;;;5068935;28;20504;-64
2024/01/10 06:43:54;;;;;;;40.60;33.63;;;-5.60;99.90;;;;;;5051361;28;20407;-64
2024/01/10 06:46:21;;;;;;;37.60;33.35;;;-5.60;99.90;;;;;;5069068;28;20848;-64
2024/01/10 06:48:47;;;;;;;40.23;33.50;;;-5.60;99.90;;;;;;5069501;28;20423;-64
2024/01/10 06:51:13;;;;;;;39.63;33.22;;;-5.60;99.90;;;;;;5067494;28;20438;-64
2024/01/10 06:53:40;;;;;;;38.83;32.53;;;-5.60;99.90;;;;;;5069533;28;20402;-65
2024/01/10 06:56:06;;;;;;;38.13;32.63;;;-5.70;99.90;;;;;;5093134;27;20999;-64
2024/01/10 06:58:33;;;;;;;39.40;33.22;;;-5.70;99.90;;;;;;5066698;28;20498;-64
2024/01/10 07:01:04;;;;;;;37.75;32.88;;;-5.70;99.90;;;;;;5066484;28;20427;-65
2024/01/10 07:03:29;;;;;;;38.40;31.95;;;-5.70;99.90;;;;;;5069686;28;20750;-64
2024/01/10 07:05:57;;;;;;;37.75;32.30;;;-5.70;99.90;;;;;;5069915;28;20403;-64
2024/01/10 07:08:22;;;;;;;36.58;32.08;;;-5.70;99.90;;;;;;5069906;28;20410;-64
2024/01/10 07:10:48;;;;;;;35.33;30.93;;;-5.70;99.90;;;;;;5068037;28;20510;-64
2024/01/10 07:13:14;;;;;;;35.03;31.23;;;-5.70;99.90;;;;;;5069579;28;20482;-64
2024/01/10 07:15:39;;;;;;;35.97;31.53;;;-5.70;99.90;;;;;;5067564;28;20937;-65
2024/01/10 07:18:06;;;;;;;37.88;31.85;;;-5.70;99.90;;;;;;5051604;28;20450;-64
2024/01/10 07:20:32;;;;;;;37.97;31.42;;;-5.70;99.90;;;;;;5068659;28;20415;-65
2024/01/10 07:22:59;;;;;;;37.13;31.73;;;-5.70;99.90;;;;;;5071106;28;20395;-65
2024/01/10 07:25:25;;;;;;;36.00;31.92;;;-5.80;99.90;;;;;;5067723;28;20935;-64
2024/01/10 07:27:53;;;;;;;35.33;29.85;;;-5.80;99.90;;;;;;5067870;28;20414;-64
2024/01/10 07:30:19;;;;;;;36.53;31.58;;;-5.80;99.90;;;;;;5063564;28;21208;-64
2024/01/10 07:32:46;;;;;;;35.55;30.27;;;-5.80;99.90;;;;;;5069042;28;20396;-64
2024/01/10 07:35:16;;;;;;;36.67;31.17;;;-5.80;99.90;;;;;;5064333;28;20411;-64
2024/01/10 07:37:42;;;;;;;35.08;29.83;;;-5.80;99.90;;;;;;5060452;28;20506;-64
2024/01/10 07:40:10;;;;;;;34.67;30.40;;;-5.80;99.90;;;;;;5071467;28;20575;-64
2024/01/10 07:42:37;;;;;;;34.13;30.40;;;-5.80;99.90;;;;;;5062726;28;20944;-64
2024/01/10 07:45:04;;;;;;;34.15;29.85;;;-5.80;99.90;;;;;;5063027;28;20396;-64
2024/01/10 07:47:39;;;;;;;33.17;29.58;;;-5.80;99.90;;;;;;5070255;28;20442;-63
2024/01/10 07:50:06;;;;;;;33.93;29.70;;;-5.80;99.90;;;;;;5050821;28;20947;-63
2024/01/10 07:52:32;;;;;;;35.08;30.60;;;-5.80;99.90;;;;;;5068606;28;20768;-64
2024/01/10 07:54:58;;;;;;;34.40;29.80;;;-5.80;99.90;;;;;;5069531;28;20404;-63
2024/01/10 07:57:24;;;;;;;36.07;30.73;;;-5.80;99.90;;;;;;5067353;28;20758;-63
2024/01/10 07:59:50;;;;;;;35.53;30.73;;;-5.80;99.90;;;;;;5050008;28;20493;-63
2024/01/10 08:02:16;;;;;;;36.17;31.13;;;-5.80;99.90;;;;;;5051024;28;20532;-63
2024/01/10 08:04:42;;;;;;;32.50;29.02;;;-5.70;99.90;;;;;;5068903;28;20458;-63
2024/01/10 08:07:08;;;;;;;35.53;30.02;;;-5.70;99.90;;;;;;5064314;28;20452;-64
2024/01/10 08:09:34;;;;;;;34.72;29.52;;;-5.70;99.90;;;;;;5063630;28;20421;-63
2024/01/10 08:12:00;;;;;;;34.53;29.55;;;-5.70;99.90;;;;;;5064431;28;20451;-63
2024/01/10 08:14:26;;;;;;;36.53;28.80;;;-5.60;99.90;;;;;;5057762;28;20446;-63
2024/01/10 08:16:58;;;;;;;32.22;28.73;;;-5.40;99.90;;;;;;5068538;28;20424;-63
2024/01/10 08:19:27;;;;;;;31.92;28.08;;;-5.10;99.90;;;;;;5065028;28;20502;-63
2024/01/10 08:21:53;;;;;;;29.60;26.02;;;-4.90;99.90;;;;;;5064458;28;20447;-63
2024/01/10 08:24:20;;;;;;;29.20;25.35;;;-4.80;99.90;;;;;;5065583;28;20418;-64
2024/01/10 08:26:47;;;;;;;28.20;25.02;;;-4.90;99.90;;;;;;5068514;28;20752;-63
2024/01/10 08:29:13;;;;;;;28.55;24.67;;;-4.90;99.90;;;;;;5067873;28;20415;-63
2024/01/10 08:31:39;;;;;;;27.63;24.58;;;-4.90;99.90;;;;;;5068645;28;20888;-63
2024/01/10 08:34:04;;;;;;;27.33;24.25;;;-4.90;99.90;;;;;;5070877;28;20414;-64
2024/01/10 08:36:30;;;;;;;27.25;23.65;;;-4.90;99.90;;;;;;5073145;28;20430;-64
2024/01/10 08:38:56;;;;;;;26.30;23.23;;;-4.90;99.90;;;;;;5069996;28;20419;-63
2024/01/10 08:41:22;;;;;;;26.38;23.52;;;-5.00;99.90;;;;;;5053821;28;20431;-64
2024/01/10 08:43:47;;;;;;;26.33;23.52;;;-5.00;99.90;;;;;;5071214;28;20412;-64
2024/01/10 08:46:14;;;;;;;26.48;23.52;;;-4.90;99.90;;;;;;5073068;28;20403;-64
2024/01/10 08:48:40;;;;;;;28.37;24.00;;;-4.80;99.90;;;;;;5070331;28;20932;-63
2024/01/10 08:51:05;;;;;;;26.93;24.03;;;-4.70;99.90;;;;;;5071466;28;20406;-63
2024/01/10 08:53:32;;;;;;;24.83;22.23;;;-4.60;99.90;;;;;;5066099;28;20454;-63
2024/01/10 08:55:58;;;;;;;25.05;22.40;;;-4.50;99.90;;;;;;5071096;28;20423;-64
2024/01/10 08:58:23;;;;;;;25.42;22.83;;;-4.40;99.90;;;;;;5070953;28;20426;-63
2024/01/10 09:00:49;;;;;;;26.80;22.85;;;-4.30;99.90;;;;;;5052910;28;20788;-63
2024/01/10 09:03:15;;;;;;;24.20;21.55;;;-4.10;99.90;;;;;;5071063;28;20475;-64
2024/01/10 09:05:41;;;;;;;23.23;20.73;;;-3.70;99.90;;;;;;5072445;28;20854;-63
2024/01/10 09:08:07;;;;;;;23.13;20.70;;;-2.80;99.90;;;;;;5071108;28;20396;-63
2024/01/10 09:10:33;;;;;;;23.20;20.57;;;-1.60;99.90;;;;;;5070234;28;20536;-64
2024/01/10 09:12:59;;;;;;;23.73;20.88;;;-0.40;99.90;;;;;;5072294;28;20400;-64
2024/01/10 09:15:25;;;;;;;21.02;18.70;;;0.70;99.90;;;;;;5072023;28;20418;-64
2024/01/10 09:17:52;;;;;;;21.27;18.98;;;1.70;99.90;;;;;;5071463;28;20430;-64
2024/01/10 09:20:18;;;;;;;22.15;18.70;;;2.50;99.90;;;;;;5054211;28;20927;-64
2024/01/10 09:22:43;;;;;;;21.17;18.83;;;3.20;99.90;;;;;;5071907;28;20908;-64
2024/01/10 09:25:12;;;;;;;18.38;12.20;;;3.60;99.90;;;;;;5073204;28;20120;-64
2024/01/10 09:27:41;;;;;;;19.85;15.00;;;3.10;99.90;;;;;;5070403;28;20427;-64
2024/01/10 09:30:10;;;;;;;19.63;17.52;;;3.50;99.90;;;;;;5071772;28;20967;-64
2024/01/10 09:32:36;;;;;;;20.83;17.80;;;4.40;99.90;;;;;;5070321;28;20411;-64
2024/01/10 09:35:03;;;;;;;21.02;18.83;;;4.80;99.90;;;;;;5039925;28;20973;-64
2024/01/10 09:37:28;;;;;;;20.05;17.95;;;4.80;99.10;;;;;;5053717;28;20423;-64
2024/01/10 09:39:54;;;;;;;21.03;18.07;;;4.50;98.40;;;;;;5071979;28;20442;-63
2024/01/10 09:42:25;;;;;;;20.80;18.60;;;4.00;98.10;;;;;;5052697;28;20443;-63
2024/01/10 09:44:51;;;;;;;19.95;17.50;;;3.80;98.20;;;;;;5070856;28;20403;-63
2024/01/10 09:47:19;;;;;;;18.52;16.52;;;3.60;98.40;;;;;;5071534;28;20403;-63
2024/01/10 09:49:46;;;;;;;16.90;14.93;;;3.50;97.90;;;;;;5071423;28;20422;-62
2024/01/10 09:52:16;;;;;;;;;;;3.20;97.80;;;;;;5071972;28;20389;-63
2024/01/10 09:54:43;;;;;;;;;;;2.10;98.20;;;;;;5073259;28;19916;-62
2024/01/10 09:57:09;;;;;;;;;;;0.80;98.50;;;;;;5072661;28;20339;-63
2024/01/10 09:59:35;;;;;;;;;;;0.10;99.30;;;;;;5064145;28;19970;-63
2024/01/10 10:02:04;;;;;;;;;;;-0.50;99.90;;;;;;5071478;28;19920;-63
2024/01/10 10:04:30;;;;;;;;;;;-0.60;99.90;;;;;;5071835;28;19916;-63
2024/01/10 10:07:00;;;;;;;;;;;-0.80;99.90;;;;;;5072807;28;19916;-63
2024/01/10 10:09:28;;;;;;;;;;;-0.50;99.90;;;;;;5071425;28;19917;-63
2024/01/10 10:11:54;;;;;;;;;;;-0.30;99.90;;;;;;5072990;28;19917;-63
2024/01/10 10:14:20;;;;;;;;;;;-0.50;99.90;;;;;;5071211;28;19920;-63
2024/01/10 10:16:45;;;;;;;;;;;-0.60;99.90;;;;;;5068561;28;19920;-62
2024/01/10 10:19:14;;;;;;;;;;;-0.30;99.90;;;;;;5070732;28;20434;-63
2024/01/10 10:21:39;;;;;;;;;;;-0.10;99.90;;;;;;5071335;28;20369;-63
2024/01/10 10:24:05;;;;;;;;;;;-0.30;99.90;;;;;;5070191;28;19923;-63
2024/01/10 10:26:34;;;;;;;;;;;-0.70;99.90;;;;;;5072079;28;20417;-63
2024/01/10 10:29:00;;;;;;;;;;;-0.80;99.90;;;;;;5072218;28;19928;-63
2024/01/10 10:31:26;;;;;;;;;;;-0.90;99.90;;;;;;5072548;28;20411;-63
2024/01/10 10:33:52;;;;;;;;;;;-1.00;99.90;;;;;;5072566;28;20022;-63
2024/01/10 10:36:19;;;;;;;;;;;-1.00;99.90;;;;;;5071267;28;20476;-63
2024/01/10 10:38:47;;;;;;;;;;;-0.80;99.90;;;;;;5072119;28;20013;-63
2024/01/10 10:41:13;;;;;;;;;;;-0.80;99.90;;;;;;5072066;28;19916;-63
2024/01/10 10:43:39;;;;;;;;;;;-0.80;99.90;;;;;;5070849;28;19974;-63
2024/01/10 10:46:09;;;;;;;;;;;-0.70;99.90;;;;;;5057876;28;19917;-63
2024/01/10 10:48:35;;;;;;;;;;;-0.60;99.90;;;;;;5070614;28;19917;-63
2024/01/10 10:51:02;;;;;;;;;;;-0.60;99.90;;;;;;5070173;28;19916;-63
2024/01/10 10:53:28;;;;;;;;;;;-0.90;99.90;;;;;;5068678;28;19982;-63
2024/01/10 10:55:56;;;;;;;;;;;-1.20;99.90;;;;;;5065187;28;20186;-63
2024/01/10 10:58:22;;;;;;;;;;;-1.40;99.90;;;;;;5055336;28;19916;-63
2024/01/10 11:00:49;;;;;;;;;;;-1.50;99.90;;;;;;5068745;28;20376;-63
2024/01/10 11:03:16;;;;;;;;;;;-1.70;99.90;;;;;;5062362;28;19970;-63
2024/01/10 11:05:42;;;;;;;;;;;-1.70;99.90;;;;;;5063217;28;19916;-63
2024/01/10 11:08:10;;;;;;;;;;;-1.80;99.90;;;;;;5056625;28;19961;-63
2024/01/10 11:10:37;;;;;;;;;;;-1.90;99.90;;;;;;5069332;28;20365;-63
2024/01/10 11:13:03;;;;;;;;;;;-1.90;99.90;;;;;;5071493;28;19916;-63
2024/01/10 11:15:47;;;;;;;;;;;-1.90;99.90;;;;;;5071355;28;19923;-63
2024/01/10 11:18:22;;;;;;;;;;;-2.00;99.90;;;;;;5068533;28;20019;-64
2024/01/10 11:20:53;;;;;;;;;;;-2.00;99.90;;;;;;5059317;28;20306;-64
2024/01/10 11:23:28;;;;;;;;;;;-2.00;99.90;;;;;;5052801;28;19917;-63
2024/01/10 11:25:54;;;;;;;;;;;-1.90;99.90;;;;;;5065699;28;19916;-64
2024/01/10 11:28:19;;;;;;;;;;;-1.80;99.90;;;;;;5069142;28;19928;-64
2024/01/10 11:30:51;;;;;;;;;;;-1.90;99.90;;;;;;5068253;28;20409;-64
2024/01/10 11:33:18;;;;;;;;;;;-1.90;99.90;;;;;;5065592;28;20421;-64
2024/01/10 11:36:04;;;;;;;;;;;-1.90;99.90;;;;;;5063096;28;20427;-64
2024/01/10 11:38:30;;;;;;;;;;;-1.90;99.90;;;;;;5057529;28;20197;-63
2024/01/10 11:40:56;;;;;;;;;;;-1.90;99.90;;;;;;5069603;28;20344;-64
2024/01/10 11:43:22;;;;;;;;;;;-1.90;99.90;;;;;;5070983;28;19969;-64
2024/01/10 11:45:52;;;;;;;;;;;-1.90;99.90;;;;;;5062814;28;19924;-64
2024/01/10 11:48:25;;;;;;;;;;;-1.90;99.90;;;;;;5058495;28;19974;-63
2024/01/10 11:50:52;;;;;;;;;;;-1.80;99.90;;;;;;5068120;28;19924;-63
2024/01/10 11:53:39;;;;;;;;;;;-1.80;99.90;;;;;;5069406;28;19925;-64
2024/01/10 11:56:18;;;;;;;;;;;-1.90;99.90;;;;;;5068416;28;20461;-64
2024/01/10 11:59:08;;;;;;;;;;;-1.90;99.90;;;;;;5067968;28;20359;-63
2024/01/10 12:01:33;;;;;;;;;;;-2.00;99.90;;;;;;5067652;28;20442;-64
2024/01/10 12:04:00;;;;;;;;;;;-2.00;99.90;;;;;;5050280;28;19920;-64
2024/01/10 12:06:26;;;;;;;;;;;-2.00;99.90;;;;;;5066919;28;20292;-64
2024/01/10 12:08:51;;;;;;;;;;;-1.90;99.90;;;;;;5065133;28;19916;-64
2024/01/10 12:11:17;;;;;;;;;;;-1.90;99.90;;;;;;5068393;28;20426;-64
2024/01/10 12:13:43;;;;;;;;;;;-1.90;99.90;;;;;;5068903;28;19925;-64
2024/01/10 12:16:09;;;;;;;;;;;-2.00;99.90;;;;;;5067126;28;19928;-64
2024/01/10 12:18:35;;;;;;;;;;;-1.90;99.90;;;;;;5068517;28;19916;-64
2024/01/10 12:21:01;;;;;;;;;;;-1.90;99.90;;;;;;5068347;28;20419;-63
2024/01/10 12:23:31;;;;;;;;;;;-1.90;99.90;;;;;;5067466;28;19916;-64
2024/01/10 12:25:57;;;;;;;;;;;-1.90;99.90;;;;;;5067563;28;20412;-64
2024/01/10 12:28:23;;;;;;;;;;;-1.80;99.90;;;;;;5068905;28;20003;-64
2024/01/10 12:30:48;;;;;;;;;;;-1.70;99.90;;;;;;5067990;28;20369;-64
2024/01/10 12:33:14;;;;;;;;;;;-1.60;99.90;;;;;;5067095;28;20159;-64
2024/01/10 12:35:42;;;;;;;;;;;-1.50;99.90;;;;;;5067653;28;20334;-64
2024/01/10 12:38:10;;;;;;;;;;;-1.40;99.90;;;;;;5069142;28;19977;-64
2024/01/10 12:40:36;;;;;;;;;;;-1.30;99.90;;;;;;5070533;28;20007;-64
2024/01/10 12:43:03;;;;;;;;;;;-1.10;99.90;;;;;;5067976;28;19938;-63
2024/01/10 12:45:28;;;;;;;;;;;-1.00;99.90;;;;;;5070110;28;20358;-63
2024/01/10 12:47:54;;;;;;;;;;;-1.00;99.90;;;;;;5068975;28;20011;-63